createdAt,value
2023-02-06T00:02:22.122Z,6.65
2023-02-06T00:04:51.270Z,6.03
2023-02-06T00:07:20.583Z,5.40
2023-02-06T00:09:51.128Z,5.82
2023-02-06T00:12:20.350Z,4.97
2023-02-06T00:14:49.590Z,5.93
2023-02-06T00:17:18.688Z,4.88
2023-02-06T00:19:48.038Z,6.00
2023-02-06T00:22:17.216Z,5.05
2023-02-06T00:24:46.295Z,5.88
2023-02-06T00:27:16.809Z,5.75
2023-02-06T00:29:46.117Z,4.90
2023-02-06T00:32:15.973Z,5.28
2023-02-06T00:34:45.248Z,5.45
2023-02-06T00:37:14.705Z,6.07
2023-02-06T00:39:43.932Z,5.97
2023-02-06T00:42:13.124Z,5.25
2023-02-06T00:44:43.834Z,5.70
2023-02-06T00:47:13.100Z,6.00
2023-02-06T00:49:42.168Z,5.45
2023-02-06T00:52:11.353Z,5.97
2023-02-06T00:54:40.790Z,5.90
2023-02-06T00:57:10.292Z,6.63
2023-02-06T00:59:39.315Z,7.40
2023-02-06T01:02:09.922Z,6.75
2023-02-06T01:04:39.418Z,8.27
2023-02-06T01:07:08.927Z,6.85
2023-02-06T01:09:38.526Z,7.20
2023-02-06T01:12:08.513Z,7.85
2023-02-06T01:14:38.013Z,7.90
2023-02-06T01:17:07.328Z,8.45
2023-02-06T01:19:38.255Z,7.65
2023-02-06T01:22:07.759Z,8.38
2023-02-06T01:24:40.182Z,8.30
2023-02-06T01:27:09.501Z,7.32
2023-02-06T01:29:38.876Z,7.82
2023-02-06T01:32:08.142Z,7.70
2023-02-06T01:34:38.711Z,7.90
2023-02-06T01:37:07.844Z,7.47
2023-02-06T01:39:37.194Z,8.27
2023-02-06T01:42:07.307Z,7.95
2023-02-06T01:44:36.387Z,7.35
2023-02-06T01:47:05.676Z,7.85
2023-02-06T01:49:44.702Z,7.45
2023-02-06T01:52:21.095Z,6.90
2023-02-06T01:54:57.513Z,6.93
2023-02-06T01:57:28.594Z,6.07
2023-02-06T02:00:02.681Z,6.90
2023-02-06T02:02:43.401Z,7.15
2023-02-06T02:05:14.541Z,7.28
2023-02-06T02:07:49.272Z,8.27
2023-02-06T02:10:18.717Z,6.72
2023-02-06T02:12:47.961Z,7.15
2023-02-06T02:15:18.708Z,7.80
2023-02-06T02:17:59.679Z,8.18
2023-02-06T02:21:23.669Z,7.40
2023-02-06T02:24:02.466Z,7.30
2023-02-06T02:27:26.880Z,8.38
2023-02-06T02:31:04.319Z,7.43
2023-02-06T02:34:28.867Z,7.38
2023-02-06T02:37:12.091Z,7.07
2023-02-06T02:39:50.676Z,6.68
2023-02-06T02:42:27.627Z,6.35
2023-02-06T02:47:33.236Z,7.97
2023-02-06T02:50:04.320Z,7.35
2023-02-06T02:52:34.907Z,7.57
2023-02-06T02:55:17.444Z,8.35
2023-02-06T02:57:51.071Z,7.00
2023-02-06T03:00:22.731Z,8.07
2023-02-06T03:02:54.287Z,7.72
2023-02-06T03:05:26.190Z,7.22
2023-02-06T03:08:13.245Z,7.18
2023-02-06T03:11:00.146Z,7.22
2023-02-06T03:13:36.721Z,6.75
2023-02-06T03:16:13.829Z,7.88
2023-02-06T03:18:47.609Z,7.22
2023-02-06T03:21:21.559Z,8.25
2023-02-06T03:23:57.646Z,9.30
2023-02-06T03:26:30.220Z,6.43
2023-02-06T03:29:04.024Z,9.77
2023-02-06T03:31:40.134Z,9.48
2023-02-06T03:34:18.711Z,8.98
2023-02-06T03:36:48.078Z,10.07
2023-02-06T03:39:19.019Z,21.73
2023-02-06T03:41:50.578Z,9.95
2023-02-06T03:44:25.689Z,8.57
2023-02-06T03:46:56.303Z,7.55
2023-02-06T03:49:29.508Z,7.75
2023-02-06T03:52:05.195Z,8.68
2023-02-06T03:54:40.678Z,7.65
2023-02-06T03:57:13.516Z,7.10
2023-02-06T03:59:42.738Z,7.90
2023-02-06T04:02:12.810Z,8.38
2023-02-06T04:04:44.010Z,9.95
2023-02-06T04:07:20.036Z,9.25
2023-02-06T04:09:51.050Z,8.35
2023-02-06T04:12:21.060Z,8.57
2023-02-06T04:14:50.780Z,8.35
2023-02-06T04:17:38.481Z,8.55
2023-02-06T04:20:11.325Z,8.02
2023-02-06T04:22:40.875Z,8.40
2023-02-06T04:25:11.485Z,8.43
2023-02-06T04:27:40.873Z,8.55
2023-02-06T04:30:13.287Z,8.18
2023-02-06T04:32:45.032Z,9.07
2023-02-06T04:35:14.173Z,8.68
2023-02-06T04:37:44.053Z,7.28
2023-02-06T04:40:14.957Z,7.85
2023-02-06T04:42:43.998Z,7.55
2023-02-06T04:45:13.533Z,7.13
2023-02-06T04:47:42.639Z,8.05
2023-02-06T04:50:12.138Z,8.88
2023-02-06T04:52:41.539Z,8.00
2023-02-06T04:55:14.506Z,8.25
2023-02-06T04:57:43.756Z,8.27
2023-02-06T05:00:14.873Z,7.90
2023-02-06T05:02:44.082Z,9.00
2023-02-06T05:05:13.337Z,9.13
2023-02-06T05:07:42.496Z,8.00
2023-02-06T05:10:11.804Z,8.55
2023-02-06T05:12:42.759Z,8.23
2023-02-06T05:15:11.926Z,9.15
2023-02-06T05:17:42.034Z,9.48
2023-02-06T05:20:12.491Z,8.68
2023-02-06T05:22:41.692Z,10.05
2023-02-06T05:25:10.815Z,10.02
2023-02-06T05:27:41.502Z,8.38
2023-02-06T05:30:12.692Z,10.18
2023-02-06T05:32:42.194Z,11.68
2023-02-06T05:35:11.690Z,27.65
2023-02-06T05:37:40.817Z,35.25
2023-02-06T05:40:12.450Z,22.45
2023-02-06T05:42:43.007Z,19.95
2023-02-06T05:45:12.112Z,18.40
2023-02-06T05:47:41.280Z,29.75
2023-02-06T05:50:10.998Z,27.05
2023-02-06T05:52:40.146Z,16.80
2023-02-06T05:55:10.930Z,15.35
2023-02-06T05:57:40.300Z,14.68
2023-02-06T06:00:13.644Z,15.23
2023-02-06T06:02:42.727Z,15.05
2023-02-06T06:05:11.870Z,13.50
2023-02-06T06:07:41.067Z,13.18
2023-02-06T06:10:11.092Z,13.15
2023-02-06T06:12:43.857Z,14.70
2023-02-06T06:15:14.616Z,16.58
2023-02-06T06:17:43.806Z,21.42
2023-02-06T06:20:13.478Z,18.38
2023-02-06T06:22:42.482Z,17.20
2023-02-06T06:25:14.344Z,14.70
2023-02-06T06:27:43.672Z,14.20
2023-02-06T06:30:15.273Z,14.05
2023-02-06T06:32:44.392Z,14.30
2023-02-06T06:35:13.515Z,13.57
2023-02-06T06:37:46.428Z,12.57
2023-02-06T06:40:15.845Z,13.20
2023-02-06T06:42:51.098Z,12.18
2023-02-06T06:45:21.833Z,11.85
2023-02-06T06:47:52.830Z,12.32
2023-02-06T06:50:22.029Z,11.52
2023-02-06T06:52:54.316Z,11.93
2023-02-06T06:55:27.113Z,11.30
2023-02-06T06:57:58.242Z,11.88
2023-02-06T07:00:28.913Z,12.57
2023-02-06T07:02:58.163Z,11.77
2023-02-06T07:05:27.339Z,11.80
2023-02-06T07:07:56.561Z,11.43
2023-02-06T07:10:25.991Z,11.90
2023-02-06T07:12:56.580Z,11.52
2023-02-06T07:15:25.767Z,12.48
2023-02-06T07:17:56.342Z,12.63
2023-02-06T07:20:25.549Z,11.50
2023-02-06T07:22:54.680Z,10.77
2023-02-06T07:25:23.833Z,11.55
2023-02-06T07:27:52.962Z,11.48
2023-02-06T07:30:22.472Z,11.75
2023-02-06T07:32:51.549Z,11.15
2023-02-06T07:35:22.005Z,12.43
2023-02-06T07:37:53.544Z,13.20
2023-02-06T07:40:24.322Z,11.55
2023-02-06T07:42:54.241Z,13.75
2023-02-06T07:45:28.138Z,12.65
2023-02-06T07:47:57.180Z,13.32
2023-02-06T07:50:27.640Z,12.05
2023-02-06T07:52:56.738Z,12.15
2023-02-06T07:55:26.067Z,11.52
2023-02-06T07:57:56.474Z,11.52
2023-02-06T08:00:26.032Z,11.27
2023-02-06T08:02:55.164Z,11.27
2023-02-06T08:05:24.266Z,11.20
2023-02-06T08:07:54.748Z,11.15
2023-02-06T08:10:24.212Z,12.30
2023-02-06T08:12:53.371Z,11.52
2023-02-06T08:15:22.463Z,11.48
2023-02-06T08:17:51.668Z,12.38
2023-02-06T08:20:20.801Z,12.07
2023-02-06T08:22:49.918Z,11.77
2023-02-06T08:25:20.592Z,10.52
2023-02-06T08:27:53.496Z,12.45
2023-02-06T08:30:22.957Z,13.30
2023-02-06T08:32:52.055Z,12.23
2023-02-06T08:35:21.347Z,11.85
2023-02-06T08:37:50.522Z,12.15
2023-02-06T08:40:21.694Z,13.05
2023-02-06T08:42:53.835Z,12.65
2023-02-06T08:45:22.946Z,12.25
2023-02-06T08:47:52.332Z,12.32
2023-02-06T08:50:21.400Z,12.27
2023-02-06T08:52:50.496Z,12.45
2023-02-06T08:55:21.081Z,12.02
2023-02-06T08:57:54.987Z,12.88
2023-02-06T09:00:24.379Z,13.13
2023-02-06T09:02:54.550Z,11.20
2023-02-06T09:05:24.421Z,11.82
2023-02-06T09:07:53.494Z,12.00
2023-02-06T09:10:30.367Z,12.75
2023-02-06T09:12:59.529Z,12.65
2023-02-06T09:15:28.710Z,12.15
2023-02-06T09:17:57.769Z,12.80
2023-02-06T09:20:27.411Z,12.55
2023-02-06T09:22:56.496Z,12.18
2023-02-06T09:25:27.084Z,10.77
2023-02-06T09:27:57.100Z,11.05
2023-02-06T09:30:26.293Z,11.38
2023-02-06T09:32:55.359Z,11.82
2023-02-06T09:35:24.498Z,11.18
2023-02-06T09:37:53.580Z,10.35
2023-02-06T09:40:28.149Z,9.98
2023-02-06T09:42:58.349Z,9.95
2023-02-06T09:45:30.536Z,10.38
2023-02-06T09:48:11.706Z,10.88
2023-02-06T09:50:52.783Z,10.45
2023-02-06T09:53:31.128Z,11.20
2023-02-06T09:56:13.916Z,10.63
2023-02-06T09:58:50.508Z,10.25
2023-02-06T10:01:25.710Z,11.50
2023-02-06T10:04:12.540Z,10.35
2023-02-06T10:06:50.462Z,11.02
2023-02-06T10:09:25.569Z,9.52
2023-02-06T10:11:59.571Z,11.32
2023-02-06T10:14:36.655Z,10.38
2023-02-06T10:17:16.572Z,10.65
2023-02-06T10:19:53.979Z,11.02
2023-02-06T10:22:29.277Z,11.63
2023-02-06T10:25:17.581Z,10.70
2023-02-06T10:27:53.969Z,10.73
2023-02-06T10:30:36.943Z,10.70
2023-02-06T10:33:24.889Z,10.70
2023-02-06T10:36:04.420Z,11.02
2023-02-06T10:39:00.753Z,11.40
2023-02-06T10:41:42.872Z,11.15
2023-02-06T10:44:28.375Z,10.82
2023-02-06T10:46:58.628Z,12.43
2023-02-06T10:49:35.074Z,10.63
2023-02-06T10:52:14.714Z,9.57
2023-02-06T10:54:52.072Z,9.55
2023-02-06T11:00:00.836Z,9.60
2023-02-06T11:02:40.331Z,10.38
2023-02-06T11:05:13.859Z,9.65
2023-02-06T11:07:46.716Z,9.32
2023-02-06T11:10:18.501Z,11.93
2023-02-06T11:12:52.957Z,9.98
2023-02-06T11:15:32.635Z,9.98
2023-02-06T11:18:05.502Z,9.90
2023-02-06T11:20:39.680Z,9.48
2023-02-06T11:23:19.296Z,9.50
2023-02-06T11:25:59.501Z,9.23
2023-02-06T11:28:28.693Z,9.88
2023-02-06T11:31:04.196Z,10.27
2023-02-06T11:33:42.054Z,9.80
2023-02-06T11:36:28.231Z,9.45
2023-02-06T11:39:00.588Z,9.95
2023-02-06T11:41:31.933Z,9.73
2023-02-06T11:44:06.692Z,9.10
2023-02-06T11:46:38.984Z,9.02
2023-02-06T11:49:24.700Z,9.57
2023-02-06T11:51:56.100Z,9.13
2023-02-06T11:54:29.370Z,8.93
2023-02-06T11:57:07.877Z,9.73
2023-02-06T11:59:38.591Z,9.05
2023-02-06T12:02:29.487Z,9.27
2023-02-06T12:05:05.504Z,8.55
2023-02-06T12:07:40.607Z,8.82
2023-02-06T12:10:16.131Z,9.30
2023-02-06T12:12:49.732Z,9.02
2023-02-06T12:15:45.505Z,8.82
2023-02-06T12:18:18.263Z,9.20
2023-02-06T12:20:54.218Z,9.60
2023-02-06T12:23:29.716Z,9.18
2023-02-06T12:26:02.080Z,8.80
2023-02-06T12:28:38.312Z,8.75
2023-02-06T12:31:17.079Z,8.18
2023-02-06T12:33:54.093Z,7.93
2023-02-06T12:36:30.239Z,9.90
2023-02-06T12:39:03.397Z,8.23
2023-02-06T12:41:59.139Z,9.10
2023-02-06T12:44:35.735Z,9.40
2023-02-06T12:47:15.097Z,9.77
2023-02-06T12:49:56.894Z,8.63
2023-02-06T12:52:32.743Z,9.70
2023-02-06T12:55:19.198Z,8.93
2023-02-06T12:57:48.613Z,8.73
2023-02-06T13:00:56.415Z,9.27
2023-02-06T13:03:34.281Z,9.23
2023-02-06T13:06:16.563Z,8.73
2023-02-06T13:08:51.502Z,9.65
2023-02-06T13:11:32.626Z,9.45
2023-02-06T13:14:05.971Z,9.50
2023-02-06T13:16:50.799Z,9.00
2023-02-06T13:19:51.276Z,9.20
2023-02-06T13:22:45.382Z,9.98
2023-02-06T13:25:56.467Z,9.35
2023-02-06T13:29:00.353Z,9.93
2023-02-06T13:31:35.501Z,9.10
2023-02-06T13:34:18.917Z,9.10
2023-02-06T13:36:54.542Z,9.20
2023-02-06T13:39:30.308Z,8.63
2023-02-06T13:42:25.020Z,9.80
2023-02-06T13:44:56.019Z,9.85
2023-02-06T13:48:23.781Z,10.50
2023-02-06T13:51:40.567Z,9.65
2023-02-06T13:55:01.566Z,9.15
2023-02-06T13:57:46.013Z,9.32
2023-02-06T14:00:23.102Z,10.25
2023-02-06T14:02:56.903Z,9.07
2023-02-06T14:05:42.471Z,10.02
2023-02-06T14:08:24.554Z,9.48
2023-02-06T14:11:37.608Z,10.20
2023-02-06T14:14:33.094Z,9.02
2023-02-06T14:17:16.758Z,9.40
2023-02-06T14:19:54.491Z,9.75
2023-02-06T14:22:33.491Z,9.23
2023-02-06T14:25:23.019Z,8.90
2023-02-06T14:28:09.032Z,8.73
2023-02-06T14:30:47.662Z,9.57
2023-02-06T14:33:50.754Z,9.52
2023-02-06T14:36:43.218Z,9.18
2023-02-06T14:39:53.169Z,8.95
2023-02-06T14:42:27.031Z,9.20
2023-02-06T14:45:00.517Z,9.32
2023-02-06T14:47:41.052Z,9.27
2023-02-06T14:50:21.148Z,9.50
2023-02-06T14:52:57.344Z,9.75
2023-02-06T14:55:37.086Z,9.70
2023-02-06T14:58:18.659Z,9.35
2023-02-06T15:00:47.783Z,9.75
2023-02-06T15:03:22.442Z,9.68
2023-02-06T15:06:03.150Z,9.02
2023-02-06T15:08:33.563Z,9.55
2023-02-06T15:11:06.333Z,9.15
2023-02-06T15:13:37.459Z,9.88
2023-02-06T15:16:10.136Z,9.68
2023-02-06T15:18:39.467Z,8.90
2023-02-06T15:21:14.963Z,9.82
2023-02-06T15:24:06.607Z,9.63
2023-02-06T15:26:44.566Z,10.90
2023-02-06T15:29:20.337Z,9.73
2023-02-06T15:31:50.434Z,10.13
2023-02-06T15:34:23.427Z,11.15
2023-02-06T15:36:55.038Z,9.82
2023-02-06T15:39:25.420Z,9.85
2023-02-06T15:41:55.268Z,10.13
2023-02-06T15:44:32.631Z,10.43
2023-02-06T15:47:04.693Z,9.55
2023-02-06T15:49:37.991Z,9.63
2023-02-06T15:52:09.699Z,10.15
2023-02-06T15:54:41.178Z,10.73
2023-02-06T15:57:32.728Z,9.98
2023-02-06T16:00:02.580Z,9.60
2023-02-06T16:02:42.027Z,10.30
2023-02-06T16:05:27.700Z,9.90
2023-02-06T16:07:59.081Z,10.50
2023-02-06T16:10:30.304Z,10.43
2023-02-06T16:13:01.916Z,10.55
2023-02-06T16:16:06.332Z,9.23
2023-02-06T16:18:38.145Z,10.13
2023-02-06T16:21:32.517Z,9.55
2023-02-06T16:24:17.713Z,10.50
2023-02-06T16:26:49.489Z,10.48
2023-02-06T16:29:28.547Z,10.30
2023-02-06T16:32:02.670Z,11.15
2023-02-06T16:34:42.493Z,11.70
2023-02-06T16:37:15.383Z,13.15
2023-02-06T16:39:47.681Z,12.80
2023-02-06T16:42:20.039Z,13.40
2023-02-06T16:44:52.263Z,15.95
2023-02-06T16:47:23.007Z,17.73
2023-02-06T16:49:52.407Z,18.70
2023-02-06T16:52:25.889Z,21.27
2023-02-06T16:54:58.985Z,15.43
2023-02-06T16:57:32.406Z,14.88
2023-02-06T17:00:01.950Z,12.98
2023-02-06T17:02:31.340Z,12.25
2023-02-06T17:05:00.633Z,12.07
2023-02-06T17:07:35.038Z,11.25
2023-02-06T17:10:06.971Z,10.38
2023-02-06T17:12:37.087Z,11.52
2023-02-06T17:15:07.143Z,12.35
2023-02-06T17:17:36.327Z,14.60
2023-02-06T17:20:08.290Z,16.95
2023-02-06T17:22:37.447Z,12.52
2023-02-06T17:25:09.032Z,14.30
2023-02-06T17:27:38.440Z,15.75
2023-02-06T17:30:08.762Z,14.63
2023-02-06T17:32:37.891Z,12.93
2023-02-06T17:35:08.238Z,11.52
2023-02-06T17:37:38.156Z,16.55
2023-02-06T17:40:12.871Z,14.52
2023-02-06T17:42:42.065Z,14.40
2023-02-06T17:45:12.001Z,15.57
2023-02-06T17:47:41.067Z,19.98
2023-02-06T17:50:14.181Z,24.88
2023-02-06T17:52:43.463Z,23.67
2023-02-06T17:55:14.734Z,24.45
2023-02-06T17:57:43.964Z,25.05
2023-02-06T18:00:17.359Z,27.77
2023-02-06T18:02:46.572Z,30.48
2023-02-06T18:05:15.847Z,29.25
2023-02-06T18:07:45.244Z,33.63
2023-02-06T18:10:15.806Z,34.80
2023-02-06T18:12:45.024Z,37.80
2023-02-06T18:15:15.561Z,29.17
2023-02-06T18:17:45.308Z,27.48
2023-02-06T18:20:15.386Z,21.98
2023-02-06T18:22:44.936Z,21.52
2023-02-06T18:25:22.339Z,15.80
2023-02-06T18:27:56.793Z,18.15
2023-02-06T18:30:26.006Z,15.68
2023-02-06T18:32:55.249Z,18.35
2023-02-06T18:35:24.316Z,18.67
2023-02-06T18:37:55.566Z,20.20
2023-02-06T18:40:26.241Z,18.48
2023-02-06T18:42:54.686Z,16.88
2023-02-06T18:45:26.568Z,17.25
2023-02-06T18:47:56.127Z,20.02
2023-02-06T18:50:25.323Z,20.92
2023-02-06T18:52:54.680Z,20.88
2023-02-06T18:55:25.373Z,29.60
2023-02-06T18:57:54.716Z,25.77
2023-02-06T19:00:25.706Z,26.77
2023-02-06T19:02:55.086Z,21.60
2023-02-06T19:05:24.250Z,19.73
2023-02-06T19:07:54.788Z,20.95
2023-02-06T19:10:25.869Z,19.45
2023-02-06T19:12:55.270Z,22.13
2023-02-06T19:15:24.517Z,22.83
2023-02-06T19:17:54.641Z,19.50
2023-02-06T19:20:23.842Z,15.35
2023-02-06T19:22:53.695Z,18.45
2023-02-06T19:25:23.112Z,17.92
2023-02-06T19:27:53.854Z,20.48
2023-02-06T19:30:23.390Z,18.65
2023-02-06T19:32:58.628Z,17.10
2023-02-06T19:35:28.512Z,21.75
2023-02-06T19:37:58.243Z,23.52
2023-02-06T19:40:27.503Z,30.88
2023-02-06T19:42:58.207Z,29.65
2023-02-06T19:45:27.377Z,26.80
2023-02-06T19:47:57.396Z,27.52
2023-02-06T19:50:26.519Z,25.83
2023-02-06T19:52:56.182Z,25.65
2023-02-06T19:55:25.488Z,26.90
2023-02-06T19:57:55.059Z,29.85
2023-02-06T20:00:25.686Z,29.88
2023-02-06T20:02:55.100Z,28.00
2023-02-06T20:05:27.091Z,25.65
2023-02-06T20:07:56.688Z,28.13
2023-02-06T20:10:26.964Z,26.05
2023-02-06T20:12:58.715Z,25.98
2023-02-06T20:15:32.061Z,22.52
2023-02-06T20:18:01.411Z,21.33
2023-02-06T20:20:30.575Z,21.02
2023-02-06T20:22:59.820Z,19.08
2023-02-06T20:25:29.397Z,18.65
2023-02-06T20:27:58.590Z,18.60
2023-02-06T20:30:31.206Z,19.05
2023-02-06T20:33:00.731Z,19.80
2023-02-06T20:35:30.009Z,19.52
2023-02-06T20:38:00.554Z,19.63
2023-02-06T20:40:30.913Z,19.05
2023-02-06T20:43:00.836Z,20.83
2023-02-06T20:45:31.516Z,21.48
2023-02-06T20:48:03.044Z,21.50
2023-02-06T20:50:32.426Z,22.45
2023-02-06T20:53:01.569Z,22.73
2023-02-06T20:55:32.776Z,22.35
2023-02-06T20:58:01.984Z,22.10
2023-02-06T21:00:32.582Z,21.65
2023-02-06T21:03:02.273Z,22.73
2023-02-06T21:05:31.870Z,23.02
2023-02-06T21:08:01.533Z,23.05
2023-02-06T21:10:31.960Z,22.50
2023-02-06T21:13:01.203Z,21.95
2023-02-06T21:15:30.396Z,23.35
2023-02-06T21:18:02.711Z,21.90
2023-02-06T21:20:32.073Z,22.48
2023-02-06T21:23:01.429Z,22.70
2023-02-06T21:25:30.603Z,22.17
2023-02-06T21:27:59.842Z,22.33
2023-02-06T21:30:29.083Z,23.25
2023-02-06T21:32:58.264Z,22.08
2023-02-06T21:35:32.757Z,22.40
2023-02-06T21:38:02.784Z,23.60
2023-02-06T21:40:31.961Z,25.02
2023-02-06T21:43:01.104Z,22.90
2023-02-06T21:45:30.149Z,22.85
2023-02-06T21:48:00.165Z,23.27
2023-02-06T21:50:30.696Z,23.95
2023-02-06T21:53:01.462Z,22.88
2023-02-06T21:55:32.458Z,24.45
2023-02-06T21:58:01.861Z,24.98
2023-02-06T22:00:30.951Z,23.77
2023-02-06T22:03:00.022Z,25.23
2023-02-06T22:05:30.891Z,23.83
2023-02-06T22:08:00.049Z,23.35
2023-02-06T22:10:29.187Z,24.98
2023-02-06T22:12:58.352Z,25.40
2023-02-06T22:15:27.568Z,22.92
2023-02-06T22:17:56.681Z,24.05
2023-02-06T22:20:25.821Z,23.38
2023-02-06T22:22:56.862Z,22.33
2023-02-06T22:25:28.414Z,22.65
2023-02-06T22:27:57.682Z,21.60
2023-02-06T22:30:26.795Z,21.98
2023-02-06T22:32:55.889Z,22.83
2023-02-06T22:35:25.369Z,21.58
2023-02-06T22:37:56.432Z,22.98
2023-02-06T22:40:25.498Z,23.35
2023-02-06T22:42:54.639Z,23.50
2023-02-06T22:45:23.759Z,21.58
2023-02-06T22:47:52.876Z,22.45
2023-02-06T22:50:21.946Z,22.85
2023-02-06T22:53:08.519Z,22.33
2023-02-06T22:55:58.642Z,24.95
2023-02-06T22:58:27.802Z,24.63
2023-02-06T23:01:03.868Z,25.08
2023-02-06T23:03:33.267Z,26.90
2023-02-06T23:06:03.242Z,25.20
2023-02-06T23:08:32.370Z,24.77
2023-02-06T23:11:03.010Z,25.95
2023-02-06T23:13:32.390Z,26.05
2023-02-06T23:16:02.340Z,28.38
2023-02-06T23:18:31.527Z,26.88
2023-02-06T23:21:03.523Z,28.48
2023-02-06T23:23:33.219Z,27.38
2023-02-06T23:26:04.143Z,29.17
2023-02-06T23:28:33.449Z,29.50
2023-02-06T23:31:02.587Z,29.90
2023-02-06T23:33:31.672Z,29.95
2023-02-06T23:36:05.669Z,29.00
2023-02-06T23:38:34.914Z,30.38
2023-02-06T23:41:11.033Z,30.08
2023-02-06T23:43:40.990Z,30.55
2023-02-06T23:46:12.391Z,29.13
2023-02-06T23:48:41.649Z,28.85
2023-02-06T23:51:10.692Z,30.35
2023-02-06T23:53:39.830Z,29.27
2023-02-06T23:56:13.472Z,27.98
2023-02-06T23:58:43.126Z,29.35
